sensor_id;sensor_type;location;lat;lon;timestamp;pressure;altitude;pressure_sealevel;temperature;humidity
69027;BME280;56080;47.594;19.116;2023-05-11T00:05:28;100346;;;14.56;52.97
69027;BME280;56080;47.594;19.116;2023-05-11T00:15:29;100347;;;14.52;53.75
69027;BME280;56080;47.594;19.116;2023-05-11T00:25:30;100354;;;14.52;54.62
69027;BME280;56080;47.594;19.116;2023-05-11T00:35:31;100347;;;14.43;54.60
69027;BME280;56080;47.594;19.116;2023-05-11T00:45:32;100340;;;14.37;55.37
69027;BME280;56080;47.594;19.116;2023-05-11T00:55:33;100340;;;14.24;56.81
69027;BME280;56080;47.594;19.116;2023-05-11T01:05:39;100340;;;14.20;57.08
69027;BME280;56080;47.594;19.116;2023-05-11T01:15:40;100343;;;14.11;57.15
69027;BME280;56080;47.594;19.116;2023-05-11T01:25:55;100342;;;14.06;59.10
69027;BME280;56080;47.594;19.116;2023-05-11T01:35:39;100341;;;14.08;59.62
69027;BME280;56080;47.594;19.116;2023-05-11T01:45:40;100337;;;13.75;60.05
69027;BME280;56080;47.594;19.116;2023-05-11T01:55:39;100333;;;13.67;60.24
69027;BME280;56080;47.594;19.116;2023-05-11T02:05:40;100328;;;13.76;61.96
69027;BME280;56080;47.594;19.116;2023-05-11T02:15:42;100327;;;13.75;63.54
69027;BME280;56080;47.594;19.116;2023-05-11T02:25:43;100317;;;13.55;64.95
69027;BME280;56080;47.594;19.116;2023-05-11T02:35:44;100327;;;13.39;64.25
69027;BME280;56080;47.594;19.116;2023-05-11T02:45:45;100311;;;13.16;62.25
69027;BME280;56080;47.594;19.116;2023-05-11T02:55:46;100309;;;13.05;61.13
69027;BME280;56080;47.594;19.116;2023-05-11T03:05:47;100305;;;13.06;60.44
69027;BME280;56080;47.594;19.116;2023-05-11T03:15:50;100310;;;12.98;60.04
69027;BME280;56080;47.594;19.116;2023-05-11T03:25:49;100308;;;13.20;60.08
69027;BME280;56080;47.594;19.116;2023-05-11T03:35:50;100315;;;12.94;59.98
69027;BME280;56080;47.594;19.116;2023-05-11T03:45:52;100318;;;12.87;59.54
69027;BME280;56080;47.594;19.116;2023-05-11T03:55:52;100329;;;13.08;59.62
69027;BME280;56080;47.594;19.116;2023-05-11T04:05:53;100327;;;13.13;59.91
69027;BME280;56080;47.594;19.116;2023-05-11T04:15:55;100335;;;13.08;59.97
69027;BME280;56080;47.594;19.116;2023-05-11T04:25:55;100346;;;13.22;59.42
69027;BME280;56080;47.594;19.116;2023-05-11T04:35:57;100352;;;13.05;58.57
69027;BME280;56080;47.594;19.116;2023-05-11T04:45:58;100359;;;13.14;57.01
69027;BME280;56080;47.594;19.116;2023-05-11T04:55:58;100365;;;13.38;54.89
69027;BME280;56080;47.594;19.116;2023-05-11T05:05:59;100363;;;13.45;53.58
69027;BME280;56080;47.594;19.116;2023-05-11T05:16:00;100362;;;13.47;52.68
69027;BME280;56080;47.594;19.116;2023-05-11T05:26:01;100369;;;13.38;52.93
69027;BME280;56080;47.594;19.116;2023-05-11T05:36:02;100374;;;13.36;52.69
69027;BME280;56080;47.594;19.116;2023-05-11T05:46:04;100366;;;13.59;53.03
69027;BME280;56080;47.594;19.116;2023-05-11T05:56:05;100376;;;13.98;52.20
69027;BME280;56080;47.594;19.116;2023-05-11T06:06:06;100384;;;13.69;52.71
69027;BME280;56080;47.594;19.116;2023-05-11T06:16:07;100383;;;13.86;51.91
69027;BME280;56080;47.594;19.116;2023-05-11T06:26:08;100395;;;14.00;51.99
69027;BME280;56080;47.594;19.116;2023-05-11T06:36:09;100392;;;14.26;52.09
69027;BME280;56080;47.594;19.116;2023-05-11T06:46:15;100392;;;15.63;49.20
69027;BME280;56080;47.594;19.116;2023-05-11T06:56:11;100399;;;15.15;50.70
69027;BME280;56080;47.594;19.116;2023-05-11T07:06:12;100390;;;15.74;49.95
69027;BME280;56080;47.594;19.116;2023-05-11T07:16:13;100386;;;15.89;50.21
69027;BME280;56080;47.594;19.116;2023-05-11T07:26:15;100386;;;16.27;48.87
69027;BME280;56080;47.594;19.116;2023-05-11T07:36:16;100388;;;16.93;46.92
69027;BME280;56080;47.594;19.116;2023-05-11T07:46:18;100384;;;16.89;47.84
69027;BME280;56080;47.594;19.116;2023-05-11T07:56:19;100371;;;18.41;44.83
69027;BME280;56080;47.594;19.116;2023-05-11T08:06:21;100368;;;18.87;44.54
69027;BME280;56080;47.594;19.116;2023-05-11T08:16:23;100361;;;19.67;42.34
69027;BME280;56080;47.594;19.116;2023-05-11T08:26:24;100350;;;19.44;42.61
69027;BME280;56080;47.594;19.116;2023-05-11T08:36:25;100342;;;19.95;40.13
69027;BME280;56080;47.594;19.116;2023-05-11T08:46:28;100333;;;20.04;37.28
69027;BME280;56080;47.594;19.116;2023-05-11T08:56:29;100308;;;19.93;35.94
69027;BME280;56080;47.594;19.116;2023-05-11T09:06:31;100306;;;20.43;36.65
69027;BME280;56080;47.594;19.116;2023-05-11T09:16:38;100298;;;20.01;37.75
69027;BME280;56080;47.594;19.116;2023-05-11T09:26:34;100292;;;20.38;37.57
69027;BME280;56080;47.594;19.116;2023-05-11T09:36:35;100284;;;20.21;37.47
69027;BME280;56080;47.594;19.116;2023-05-11T09:46:37;100278;;;19.66;38.38
69027;BME280;56080;47.594;19.116;2023-05-11T09:56:47;100267;;;19.52;38.27
69027;BME280;56080;47.594;19.116;2023-05-11T10:06:43;100270;;;19.62;36.54
69027;BME280;56080;47.594;19.116;2023-05-11T10:16:41;100261;;;19.88;36.71
69027;BME280;56080;47.594;19.116;2023-05-11T10:26:42;100258;;;19.22;35.97
69027;BME280;56080;47.594;19.116;2023-05-11T10:36:44;100241;;;19.49;36.66
69027;BME280;56080;47.594;19.116;2023-05-11T10:46:52;100222;;;19.95;33.38
69027;BME280;56080;47.594;19.116;2023-05-11T11:07:02;100207;;;19.62;33.75
69027;BME280;56080;47.594;19.116;2023-05-11T11:17:22;100189;;;20.01;34.30
69027;BME280;56080;47.594;19.116;2023-05-11T11:26:51;100194;;;19.92;32.42
69027;BME280;56080;47.594;19.116;2023-05-11T11:47:08;100189;;;19.69;33.01
69027;BME280;56080;47.594;19.116;2023-05-11T11:56:56;100194;;;20.29;32.51
69027;BME280;56080;47.594;19.116;2023-05-11T12:06:58;100188;;;19.97;34.33
69027;BME280;56080;47.594;19.116;2023-05-11T12:17:00;100172;;;20.26;33.27
69027;BME280;56080;47.594;19.116;2023-05-11T12:27:01;100176;;;19.79;34.63
69027;BME280;56080;47.594;19.116;2023-05-11T12:37:03;100161;;;19.73;34.59
69027;BME280;56080;47.594;19.116;2023-05-11T12:47:04;100163;;;19.73;34.82
69027;BME280;56080;47.594;19.116;2023-05-11T12:57:06;100149;;;20.03;34.39
69027;BME280;56080;47.594;19.116;2023-05-11T13:07:07;100135;;;19.99;34.24
69027;BME280;56080;47.594;19.116;2023-05-11T13:17:08;100120;;;20.27;33.21
69027;BME280;56080;47.594;19.116;2023-05-11T13:37:11;100104;;;20.15;34.12
69027;BME280;56080;47.594;19.116;2023-05-11T13:47:13;100095;;;20.23;33.76
69027;BME280;56080;47.594;19.116;2023-05-11T13:57:14;100094;;;19.75;32.54
69027;BME280;56080;47.594;19.116;2023-05-11T14:07:16;100073;;;20.51;32.74
69027;BME280;56080;47.594;19.116;2023-05-11T14:17:17;100074;;;20.14;32.33
69027;BME280;56080;47.594;19.116;2023-05-11T14:27:19;100064;;;20.13;32.34
69027;BME280;56080;47.594;19.116;2023-05-11T14:37:21;100061;;;19.66;32.96
69027;BME280;56080;47.594;19.116;2023-05-11T14:47:22;100053;;;20.16;32.38
69027;BME280;56080;47.594;19.116;2023-05-11T14:57:24;100042;;;20.33;32.54
69027;BME280;56080;47.594;19.116;2023-05-11T15:07:25;100049;;;20.16;32.32
69027;BME280;56080;47.594;19.116;2023-05-11T15:17:27;100055;;;19.99;33.05
69027;BME280;56080;47.594;19.116;2023-05-11T15:27:29;100052;;;19.93;33.38
69027;BME280;56080;47.594;19.116;2023-05-11T15:37:30;100053;;;19.90;32.93
69027;BME280;56080;47.594;19.116;2023-05-11T15:47:31;100058;;;19.79;33.15
69027;BME280;56080;47.594;19.116;2023-05-11T15:57:35;100060;;;19.60;33.51
69027;BME280;56080;47.594;19.116;2023-05-11T16:07:34;100068;;;19.53;34.27
69027;BME280;56080;47.594;19.116;2023-05-11T16:17:35;100072;;;19.47;35.09
69027;BME280;56080;47.594;19.116;2023-05-11T16:27:39;100082;;;19.32;36.03
69027;BME280;56080;47.594;19.116;2023-05-11T16:37:39;100085;;;19.22;36.57
69027;BME280;56080;47.594;19.116;2023-05-11T16:47:40;100089;;;19.12;38.00
69027;BME280;56080;47.594;19.116;2023-05-11T16:57:42;100098;;;19.01;38.06
69027;BME280;56080;47.594;19.116;2023-05-11T17:07:45;100110;;;18.58;41.32
69027;BME280;56080;47.594;19.116;2023-05-11T17:17:45;100112;;;18.35;42.64
69027;BME280;56080;47.594;19.116;2023-05-11T17:27:46;100118;;;18.25;42.26
69027;BME280;56080;47.594;19.116;2023-05-11T17:37:49;100125;;;18.27;42.82
69027;BME280;56080;47.594;19.116;2023-05-11T17:47:49;100149;;;18.15;44.54
69027;BME280;56080;47.594;19.116;2023-05-11T17:57:51;100154;;;17.58;45.38
69027;BME280;56080;47.594;19.116;2023-05-11T18:07:52;100157;;;17.37;45.75
69027;BME280;56080;47.594;19.116;2023-05-11T18:17:53;100190;;;17.06;46.27
69027;BME280;56080;47.594;19.116;2023-05-11T18:27:53;100196;;;17.03;45.83
69027;BME280;56080;47.594;19.116;2023-05-11T18:37:54;100207;;;16.84;45.90
69027;BME280;56080;47.594;19.116;2023-05-11T18:47:55;100235;;;16.50;47.74
69027;BME280;56080;47.594;19.116;2023-05-11T18:57:57;100255;;;16.09;48.53
69027;BME280;56080;47.594;19.116;2023-05-11T19:18:00;100280;;;15.58;51.06
69027;BME280;56080;47.594;19.116;2023-05-11T19:28:00;100297;;;15.28;53.93
69027;BME280;56080;47.594;19.116;2023-05-11T19:38:05;100293;;;15.05;55.97
69027;BME280;56080;47.594;19.116;2023-05-11T19:48:03;100307;;;14.95;57.33
69027;BME280;56080;47.594;19.116;2023-05-11T19:58:04;100312;;;14.67;60.74
69027;BME280;56080;47.594;19.116;2023-05-11T20:08:08;100317;;;14.38;62.91
69027;BME280;56080;47.594;19.116;2023-05-11T20:18:06;100321;;;14.07;66.00
69027;BME280;56080;47.594;19.116;2023-05-11T20:28:07;100323;;;13.88;68.11
69027;BME280;56080;47.594;19.116;2023-05-11T20:38:08;100325;;;14.06;68.34
69027;BME280;56080;47.594;19.116;2023-05-11T20:48:08;100327;;;13.87;70.00
69027;BME280;56080;47.594;19.116;2023-05-11T20:58:10;100328;;;14.03;70.23
69027;BME280;56080;47.594;19.116;2023-05-11T21:08:10;100327;;;13.66;71.42
69027;BME280;56080;47.594;19.116;2023-05-11T21:18:11;100322;;;13.78;71.76
69027;BME280;56080;47.594;19.116;2023-05-11T21:28:12;100318;;;13.75;74.11
69027;BME280;56080;47.594;19.116;2023-05-11T21:38:15;100329;;;13.71;74.63
69027;BME280;56080;47.594;19.116;2023-05-11T21:48:14;100333;;;13.73;75.49
69027;BME280;56080;47.594;19.116;2023-05-11T21:58:16;100338;;;13.69;76.50
69027;BME280;56080;47.594;19.116;2023-05-11T22:08:16;100332;;;13.62;76.58
69027;BME280;56080;47.594;19.116;2023-05-11T22:18:18;100335;;;13.79;77.18
69027;BME280;56080;47.594;19.116;2023-05-11T22:28:18;100334;;;13.58;78.06
69027;BME280;56080;47.594;19.116;2023-05-11T22:38:19;100344;;;13.56;77.69
69027;BME280;56080;47.594;19.116;2023-05-11T22:48:20;100346;;;13.20;79.98
69027;BME280;56080;47.594;19.116;2023-05-11T22:58:21;100348;;;13.26;80.94
69027;BME280;56080;47.594;19.116;2023-05-11T23:08:24;100347;;;13.33;79.43
69027;BME280;56080;47.594;19.116;2023-05-11T23:18:24;100348;;;13.15;80.07
69027;BME280;56080;47.594;19.116;2023-05-11T23:28:24;100341;;;13.24;81.08
69027;BME280;56080;47.594;19.116;2023-05-11T23:38:26;100345;;;13.15;82.91
69027;BME280;56080;47.594;19.116;2023-05-11T23:48:26;100337;;;13.29;84.28
69027;BME280;56080;47.594;19.116;2023-05-11T23:58:28;100334;;;12.98;84.99
